Terminal Aerodrome Forecast
Issued by NWS

Home | Current Version | Previous Version | Text Only | Print | Product List | Glossary Off
Versions: 1 2 3 4 5 6 7 8 9 10 11 12 13 14 15 16 17 18 19 20 21 22 23 24 25

000
FTUS43 KABR 291100
TAFATY
TAF
KATY 291124Z 2912/3012 VRB03KT 1SM BR OVC003
      TEMPO 2912/2914 1/2SM FG OVC002
     FM291500 VRB03KT 3SM BR OVC005
     FM291700 VRB03KT P6SM BKN100
     FM292200 35010KT P6SM VCSH BKN050
     FM300500 36011KT P6SM BKN015=

USA.gov is the U.S. government's official web portal to all federal, state and local government web resources and services.